sensor_id;sensor_type;location;lat;lon;timestamp;pressure;altitude;pressure_sealevel;temperature;humidity
26719;BME280;14326;50.794;6.060;2023-04-28T00:01:44;99281.75;;;10.73;100.00
26719;BME280;14326;50.794;6.060;2023-04-28T00:04:15;99292.41;;;10.75;100.00
26719;BME280;14326;50.794;6.060;2023-04-28T00:06:52;99277.34;;;10.75;100.00
26719;BME280;14326;50.794;6.060;2023-04-28T00:09:44;99275.56;;;10.76;100.00
26719;BME280;14326;50.794;6.060;2023-04-28T00:12:12;99264.00;;;10.67;100.00
26719;BME280;14326;50.794;6.060;2023-04-28T00:14:38;99266.69;;;10.64;100.00
26719;BME280;14326;50.794;6.060;2023-04-28T00:17:07;99274.66;;;10.67;100.00
26719;BME280;14326;50.794;6.060;2023-04-28T00:19:34;99269.34;;;10.71;100.00
26719;BME280;14326;50.794;6.060;2023-04-28T00:22:02;99264.88;;;10.66;100.00
26719;BME280;14326;50.794;6.060;2023-04-28T00:24:29;99264.88;;;10.60;100.00
26719;BME280;14326;50.794;6.060;2023-04-28T00:26:58;99254.22;;;10.60;100.00
26719;BME280;14326;50.794;6.060;2023-04-28T00:29:42;99257.81;;;10.65;100.00
26719;BME280;14326;50.794;6.060;2023-04-28T00:32:28;99256.94;;;10.70;100.00
26719;BME280;14326;50.794;6.060;2023-04-28T00:35:04;99251.59;;;10.73;100.00
26719;BME280;14326;50.794;6.060;2023-04-28T00:38:00;99248.97;;;10.74;100.00
26719;BME280;14326;50.794;6.060;2023-04-28T00:40:56;99244.50;;;10.73;100.00
26719;BME280;14326;50.794;6.060;2023-04-28T00:46:39;99240.09;;;10.71;100.00
26719;BME280;14326;50.794;6.060;2023-04-28T00:49:38;99236.56;;;10.72;100.00
26719;BME280;14326;50.794;6.060;2023-04-28T00:52:27;99230.34;;;10.70;100.00
26719;BME280;14326;50.794;6.060;2023-04-28T00:55:16;99230.31;;;10.73;100.00
26719;BME280;14326;50.794;6.060;2023-04-28T00:57:47;99228.53;;;10.67;100.00
26719;BME280;14326;50.794;6.060;2023-04-28T01:00:14;99229.44;;;10.64;100.00
26719;BME280;14326;50.794;6.060;2023-04-28T01:02:41;99219.66;;;10.66;100.00
26719;BME280;14326;50.794;6.060;2023-04-28T01:05:13;99219.69;;;10.70;100.00
26719;BME280;14326;50.794;6.060;2023-04-28T01:07:53;99220.59;;;10.72;100.00
26719;BME280;14326;50.794;6.060;2023-04-28T01:10:20;99209.94;;;10.75;100.00
26719;BME280;14326;50.794;6.060;2023-04-28T01:12:46;99214.41;;;10.77;100.00
26719;BME280;14326;50.794;6.060;2023-04-28T01:15:22;99208.19;;;10.80;100.00
26719;BME280;14326;50.794;6.060;2023-04-28T01:17:51;99207.28;;;10.79;100.00
26719;BME280;14326;50.794;6.060;2023-04-28T01:20:19;99211.75;;;10.82;100.00
26719;BME280;14326;50.794;6.060;2023-04-28T01:22:53;99220.59;;;10.87;100.00
26719;BME280;14326;50.794;6.060;2023-04-28T01:25:53;99218.81;;;10.86;100.00
26719;BME280;14326;50.794;6.060;2023-04-28T01:28:26;99207.28;;;10.85;100.00
26719;BME280;14326;50.794;6.060;2023-04-28T01:31:18;99207.28;;;10.81;100.00
26719;BME280;14326;50.794;6.060;2023-04-28T01:33:55;99215.25;;;10.75;100.00
26719;BME280;14326;50.794;6.060;2023-04-28T01:36:25;99218.81;;;10.77;100.00
26719;BME280;14326;50.794;6.060;2023-04-28T01:38:52;99221.47;;;10.78;100.00
26719;BME280;14326;50.794;6.060;2023-04-28T01:41:20;99210.84;;;10.80;100.00
26719;BME280;14326;50.794;6.060;2023-04-28T01:43:51;99208.16;;;10.74;100.00
26719;BME280;14326;50.794;6.060;2023-04-28T01:46:30;99199.28;;;10.59;100.00
26719;BME280;14326;50.794;6.060;2023-04-28T01:49:30;99197.47;;;10.51;100.00
26719;BME280;14326;50.794;6.060;2023-04-28T01:52:07;99199.28;;;10.56;100.00
26719;BME280;14326;50.794;6.060;2023-04-28T01:54:52;99200.16;;;10.55;100.00
26719;BME280;14326;50.794;6.060;2023-04-28T01:57:20;99195.69;;;10.54;100.00
26719;BME280;14326;50.794;6.060;2023-04-28T01:59:47;99196.63;;;10.58;100.00
26719;BME280;14326;50.794;6.060;2023-04-28T02:02:13;99190.41;;;10.60;100.00
26719;BME280;14326;50.794;6.060;2023-04-28T02:04:40;99193.06;;;10.62;100.00
26719;BME280;14326;50.794;6.060;2023-04-28T02:07:07;99185.97;;;10.67;100.00
26719;BME280;14326;50.794;6.060;2023-04-28T02:09:33;99183.34;;;10.68;100.00
26719;BME280;14326;50.794;6.060;2023-04-28T02:12:22;99181.56;;;10.63;100.00
26719;BME280;14326;50.794;6.060;2023-04-28T02:17:47;99175.34;;;10.58;100.00
26719;BME280;14326;50.794;6.060;2023-04-28T02:20:14;99180.66;;;10.56;100.00
26719;BME280;14326;50.794;6.060;2023-04-28T02:22:41;99182.41;;;10.56;100.00
26719;BME280;14326;50.794;6.060;2023-04-28T02:25:08;99183.34;;;10.59;100.00
26719;BME280;14326;50.794;6.060;2023-04-28T02:27:36;99174.44;;;10.60;100.00
26719;BME280;14326;50.794;6.060;2023-04-28T02:30:03;99180.69;;;10.65;100.00
26719;BME280;14326;50.794;6.060;2023-04-28T02:32:30;99173.59;;;10.69;100.00
26719;BME280;14326;50.794;6.060;2023-04-28T02:34:57;99168.25;;;10.74;100.00
26719;BME280;14326;50.794;6.060;2023-04-28T02:37:23;99171.81;;;10.74;100.00
26719;BME280;14326;50.794;6.060;2023-04-28T02:39:50;99174.47;;;10.76;100.00
26719;BME280;14326;50.794;6.060;2023-04-28T02:42:17;99165.59;;;10.78;100.00
26719;BME280;14326;50.794;6.060;2023-04-28T02:44:54;99169.16;;;10.79;100.00
26719;BME280;14326;50.794;6.060;2023-04-28T02:47:32;99168.28;;;10.80;100.00
26719;BME280;14326;50.794;6.060;2023-04-28T02:50:00;99161.19;;;10.80;100.00
26719;BME280;14326;50.794;6.060;2023-04-28T02:52:26;99149.66;;;10.80;100.00
26719;BME280;14326;50.794;6.060;2023-04-28T02:54:53;99155.88;;;10.82;100.00
26719;BME280;14326;50.794;6.060;2023-04-28T02:57:21;99150.53;;;10.79;100.00
26719;BME280;14326;50.794;6.060;2023-04-28T02:59:53;99145.22;;;10.74;100.00
26719;BME280;14326;50.794;6.060;2023-04-28T03:02:27;99139.00;;;10.72;100.00
26719;BME280;14326;50.794;6.060;2023-04-28T03:04:58;99131.91;;;10.73;100.00
26719;BME280;14326;50.794;6.060;2023-04-28T03:07:24;99117.72;;;10.74;100.00
26719;BME280;14326;50.794;6.060;2023-04-28T03:09:51;99120.38;;;10.74;100.00
26719;BME280;14326;50.794;6.060;2023-04-28T03:12:18;99120.38;;;10.74;100.00
26719;BME280;14326;50.794;6.060;2023-04-28T03:15:07;99120.41;;;10.75;100.00
26719;BME280;14326;50.794;6.060;2023-04-28T03:17:33;99117.72;;;10.74;100.00
26719;BME280;14326;50.794;6.060;2023-04-28T03:20:03;99112.41;;;10.75;100.00
26719;BME280;14326;50.794;6.060;2023-04-28T03:22:30;99100.88;;;10.76;100.00
26719;BME280;14326;50.794;6.060;2023-04-28T03:25:05;99090.25;;;10.70;100.00
26719;BME280;14326;50.794;6.060;2023-04-28T03:27:31;99079.63;;;10.64;100.00
26719;BME280;14326;50.794;6.060;2023-04-28T03:29:58;99081.38;;;10.63;100.00
26719;BME280;14326;50.794;6.060;2023-04-28T03:32:26;99089.34;;;10.66;100.00
26719;BME280;14326;50.794;6.060;2023-04-28T03:34:53;99073.41;;;10.71;100.00
26719;BME280;14326;50.794;6.060;2023-04-28T03:37:19;99064.53;;;10.75;100.00
26719;BME280;14326;50.794;6.060;2023-04-28T03:39:46;99051.25;;;10.71;100.00
26719;BME280;14326;50.794;6.060;2023-04-28T03:42:14;99028.19;;;10.68;100.00
26719;BME280;14326;50.794;6.060;2023-04-28T03:44:40;99009.56;;;10.60;100.00
26719;BME280;14326;50.794;6.060;2023-04-28T03:47:07;99017.56;;;10.57;100.00
26719;BME280;14326;50.794;6.060;2023-04-28T03:49:41;99046.78;;;10.60;100.00
26719;BME280;14326;50.794;6.060;2023-04-28T03:52:26;99066.31;;;10.65;100.00
26719;BME280;14326;50.794;6.060;2023-04-28T03:54:52;99061.88;;;10.71;100.00
26719;BME280;14326;50.794;6.060;2023-04-28T03:57:19;99061.00;;;10.76;100.00
26719;BME280;14326;50.794;6.060;2023-04-28T03:59:45;99060.97;;;10.79;100.00
26719;BME280;14326;50.794;6.060;2023-04-28T04:02:12;99055.69;;;10.84;100.00
26719;BME280;14326;50.794;6.060;2023-04-28T04:04:40;99061.88;;;10.87;100.00
26719;BME280;14326;50.794;6.060;2023-04-28T04:07:07;99072.50;;;10.92;100.00
26719;BME280;14326;50.794;6.060;2023-04-28T04:09:39;99079.59;;;10.94;100.00
26719;BME280;14326;50.794;6.060;2023-04-28T04:12:06;99086.69;;;10.98;100.00
26719;BME280;14326;50.794;6.060;2023-04-28T04:14:44;99082.22;;;11.02;100.00
26719;BME280;14326;50.794;6.060;2023-04-28T04:17:12;99087.56;;;11.02;100.00
26719;BME280;14326;50.794;6.060;2023-04-28T04:22:38;99077.81;;;11.07;100.00
26719;BME280;14326;50.794;6.060;2023-04-28T04:25:05;99078.66;;;11.07;100.00
26719;BME280;14326;50.794;6.060;2023-04-28T04:27:32;99082.22;;;11.08;100.00
26719;BME280;14326;50.794;6.060;2023-04-28T04:30:14;99085.78;;;11.10;100.00
26719;BME280;14326;50.794;6.060;2023-04-28T04:32:46;99083.13;;;11.10;100.00
26719;BME280;14326;50.794;6.060;2023-04-28T04:35:14;99084.88;;;11.08;100.00
26719;BME280;14326;50.794;6.060;2023-04-28T04:37:41;99089.31;;;11.09;100.00
26719;BME280;14326;50.794;6.060;2023-04-28T04:40:15;99087.56;;;11.13;100.00
26719;BME280;14326;50.794;6.060;2023-04-28T04:42:51;99083.97;;;11.14;100.00
26719;BME280;14326;50.794;6.060;2023-04-28T04:45:27;99082.22;;;11.16;100.00
26719;BME280;14326;50.794;6.060;2023-04-28T04:48:01;99089.31;;;11.14;100.00
26719;BME280;14326;50.794;6.060;2023-04-28T04:50:29;99081.34;;;11.12;100.00
26719;BME280;14326;50.794;6.060;2023-04-28T04:52:55;99075.16;;;11.07;100.00
26719;BME280;14326;50.794;6.060;2023-04-28T04:55:37;99067.16;;;10.98;100.00
26719;BME280;14326;50.794;6.060;2023-04-28T04:58:06;99068.03;;;10.97;100.00
26719;BME280;14326;50.794;6.060;2023-04-28T05:00:32;99067.16;;;10.99;100.00
26719;BME280;14326;50.794;6.060;2023-04-28T05:03:11;99082.22;;;11.02;100.00
26719;BME280;14326;50.794;6.060;2023-04-28T05:05:39;99082.25;;;11.05;100.00
26719;BME280;14326;50.794;6.060;2023-04-28T05:08:25;99066.28;;;11.06;100.00
26719;BME280;14326;50.794;6.060;2023-04-28T05:10:52;99060.09;;;11.01;100.00
26719;BME280;14326;50.794;6.060;2023-04-28T05:13:18;99072.50;;;10.99;100.00
26719;BME280;14326;50.794;6.060;2023-04-28T05:15:52;99068.03;;;11.03;100.00
26719;BME280;14326;50.794;6.060;2023-04-28T05:18:21;99065.38;;;11.06;100.00
26719;BME280;14326;50.794;6.060;2023-04-28T05:23:52;99053.84;;;11.13;100.00
26719;BME280;14326;50.794;6.060;2023-04-28T05:26:34;99048.50;;;11.18;100.00
26719;BME280;14326;50.794;6.060;2023-04-28T05:29:10;99047.59;;;11.22;100.00
26719;BME280;14326;50.794;6.060;2023-04-28T05:31:45;99055.56;;;11.26;100.00
26719;BME280;14326;50.794;6.060;2023-04-28T05:34:16;99062.69;;;11.30;100.00
26719;BME280;14326;50.794;6.060;2023-04-28T05:36:53;99057.31;;;11.33;100.00
26719;BME280;14326;50.794;6.060;2023-04-28T05:39:56;99050.19;;;11.37;100.00
26719;BME280;14326;50.794;6.060;2023-04-28T05:42:54;99052.88;;;11.41;100.00
26719;BME280;14326;50.794;6.060;2023-04-28T05:45:31;99056.41;;;11.46;100.00
26719;BME280;14326;50.794;6.060;2023-04-28T05:47:59;99056.38;;;11.51;100.00
26719;BME280;14326;50.794;6.060;2023-04-28T05:50:26;99063.47;;;11.57;100.00
26719;BME280;14326;50.794;6.060;2023-04-28T05:52:54;99065.25;;;11.59;100.00
26719;BME280;14326;50.794;6.060;2023-04-28T05:55:27;99069.66;;;11.62;100.00
26719;BME280;14326;50.794;6.060;2023-04-28T05:57:53;99066.09;;;11.66;100.00
26719;BME280;14326;50.794;6.060;2023-04-28T06:00:20;99066.09;;;11.66;100.00
26719;BME280;14326;50.794;6.060;2023-04-28T06:02:47;99065.19;;;11.68;100.00
26719;BME280;14326;50.794;6.060;2023-04-28T06:05:13;99071.41;;;11.72;100.00
26719;BME280;14326;50.794;6.060;2023-04-28T06:07:40;99077.63;;;11.74;100.00
26719;BME280;14326;50.794;6.060;2023-04-28T06:10:09;99079.41;;;11.78;100.00
26719;BME280;14326;50.794;6.060;2023-04-28T06:12:51;99080.25;;;11.84;100.00
26719;BME280;14326;50.794;6.060;2023-04-28T06:15:41;99070.44;;;11.91;100.00
26719;BME280;14326;50.794;6.060;2023-04-28T06:18:10;99071.28;;;11.98;100.00
26719;BME280;14326;50.794;6.060;2023-04-28T06:20:36;99061.53;;;12.00;100.00
26719;BME280;14326;50.794;6.060;2023-04-28T06:23:03;99064.16;;;12.04;100.00
26719;BME280;14326;50.794;6.060;2023-04-28T06:25:32;99063.25;;;12.07;100.00
26719;BME280;14326;50.794;6.060;2023-04-28T06:27:58;99076.56;;;12.08;100.00
26719;BME280;14326;50.794;6.060;2023-04-28T06:30:25;99074.78;;;12.12;100.00
26719;BME280;14326;50.794;6.060;2023-04-28T06:32:54;99064.97;;;12.17;100.00
26719;BME280;14326;50.794;6.060;2023-04-28T06:35:31;99070.28;;;12.21;100.00
26719;BME280;14326;50.794;6.060;2023-04-28T06:38:11;99069.38;;;12.22;100.00
26719;BME280;14326;50.794;6.060;2023-04-28T06:40:39;99056.00;;;12.28;100.00
26719;BME280;14326;50.794;6.060;2023-04-28T06:43:06;99063.13;;;12.31;100.00
26719;BME280;14326;50.794;6.060;2023-04-28T06:45:38;99071.94;;;12.39;100.00
26719;BME280;14326;50.794;6.060;2023-04-28T06:48:05;99074.56;;;12.45;100.00
26719;BME280;14326;50.794;6.060;2023-04-28T06:50:32;99072.72;;;12.52;100.00
26719;BME280;14326;50.794;6.060;2023-04-28T06:53:14;99068.19;;;12.63;100.00
26719;BME280;14326;50.794;6.060;2023-04-28T06:55:43;99078.81;;;12.72;100.00
26719;BME280;14326;50.794;6.060;2023-04-28T06:58:09;99078.72;;;12.80;100.00
26719;BME280;14326;50.794;6.060;2023-04-28T07:00:36;99083.13;;;12.87;100.00
26719;BME280;14326;50.794;6.060;2023-04-28T07:03:03;99084.84;;;12.94;100.00
26719;BME280;14326;50.794;6.060;2023-04-28T07:05:32;99076.72;;;13.04;100.00
26719;BME280;14326;50.794;6.060;2023-04-28T07:08:05;99078.50;;;13.05;100.00
26719;BME280;14326;50.794;6.060;2023-04-28T07:10:31;99082.91;;;13.08;100.00
26719;BME280;14326;50.794;6.060;2023-04-28T07:13:00;99084.66;;;13.13;100.00
26719;BME280;14326;50.794;6.060;2023-04-28T07:15:26;99074.84;;;13.19;100.00
26719;BME280;14326;50.794;6.060;2023-04-28T07:17:54;99071.22;;;13.24;100.00
26719;BME280;14326;50.794;6.060;2023-04-28T07:20:23;99064.88;;;13.33;100.00
26719;BME280;14326;50.794;6.060;2023-04-28T07:22:59;99073.72;;;13.38;100.00
26719;BME280;14326;50.794;6.060;2023-04-28T07:25:34;99077.22;;;13.46;100.00
26719;BME280;14326;50.794;6.060;2023-04-28T07:28:23;99068.22;;;13.53;100.00
26719;BME280;14326;50.794;6.060;2023-04-28T07:30:50;99073.44;;;13.62;100.00
26719;BME280;14326;50.794;6.060;2023-04-28T07:33:17;99073.38;;;13.71;100.00
26719;BME280;14326;50.794;6.060;2023-04-28T07:35:45;99076.84;;;13.76;100.00
26719;BME280;14326;50.794;6.060;2023-04-28T07:38:20;99075.91;;;13.82;100.00
26719;BME280;14326;50.794;6.060;2023-04-28T07:40:55;99074.06;;;13.85;100.00
26719;BME280;14326;50.794;6.060;2023-04-28T07:43:23;99070.47;;;13.86;100.00
26719;BME280;14326;50.794;6.060;2023-04-28T07:46:03;99067.75;;;13.91;100.00
26719;BME280;14326;50.794;6.060;2023-04-28T07:48:36;99072.09;;;14.00;100.00
26719;BME280;14326;50.794;6.060;2023-04-28T07:51:03;99072.94;;;14.03;100.00
26719;BME280;14326;50.794;6.060;2023-04-28T07:53:38;99071.13;;;14.07;100.00
26719;BME280;14326;50.794;6.060;2023-04-28T07:56:07;99069.28;;;14.09;100.00
26719;BME280;14326;50.794;6.060;2023-04-28T07:58:36;99069.28;;;14.10;100.00
26719;BME280;14326;50.794;6.060;2023-04-28T08:01:03;99071.88;;;14.15;100.00
26719;BME280;14326;50.794;6.060;2023-04-28T08:03:30;99068.38;;;14.11;100.00
26719;BME280;14326;50.794;6.060;2023-04-28T08:06:02;99079.06;;;14.13;100.00
26719;BME280;14326;50.794;6.060;2023-04-28T08:08:38;99080.88;;;14.09;100.00
26719;BME280;14326;50.794;6.060;2023-04-28T08:11:08;99083.47;;;14.14;100.00
26719;BME280;14326;50.794;6.060;2023-04-28T08:14:07;99085.22;;;14.16;100.00
26719;BME280;14326;50.794;6.060;2023-04-28T08:16:59;99090.59;;;14.15;100.00
26719;BME280;14326;50.794;6.060;2023-04-28T08:50:21;99109.22;;;14.22;100.00
26719;BME280;14326;50.794;6.060;2023-04-28T08:52:51;99113.75;;;14.19;100.00
26719;BME280;14326;50.794;6.060;2023-04-28T08:55:18;99116.44;;;14.17;100.00
26719;BME280;14326;50.794;6.060;2023-04-28T08:57:48;99104.88;;;14.14;100.00
26719;BME280;14326;50.794;6.060;2023-04-28T09:00:20;99115.56;;;14.14;100.00
26719;BME280;14326;50.794;6.060;2023-04-28T09:02:51;99116.44;;;14.14;100.00
26719;BME280;14326;50.794;6.060;2023-04-28T09:05:17;99112.00;;;14.15;100.00
26719;BME280;14326;50.794;6.060;2023-04-28T09:07:45;99111.06;;;14.19;100.00
26719;BME280;14326;50.794;6.060;2023-04-28T09:10:16;99113.69;;;14.22;100.00
26719;BME280;14326;50.794;6.060;2023-04-28T09:12:43;99111.75;;;14.31;100.00
26719;BME280;14326;50.794;6.060;2023-04-28T09:15:10;99106.25;;;14.44;100.00
26719;BME280;14326;50.794;6.060;2023-04-28T09:17:47;99099.75;;;14.63;100.00
26719;BME280;14326;50.794;6.060;2023-04-28T09:20:20;99105.81;;;14.74;100.00
26719;BME280;14326;50.794;6.060;2023-04-28T09:28:18;99094.78;;;14.94;100.00
26719;BME280;14326;50.794;6.060;2023-04-28T09:30:59;99098.31;;;14.96;100.00
26719;BME280;14326;50.794;6.060;2023-04-28T09:33:28;99105.47;;;14.95;100.00
26719;BME280;14326;50.794;6.060;2023-04-28T09:35:56;99106.31;;;14.97;100.00
26719;BME280;14326;50.794;6.060;2023-04-28T09:38:23;99108.97;;;14.99;100.00
26719;BME280;14326;50.794;6.060;2023-04-28T09:40:56;99108.06;;;15.00;100.00
26719;BME280;14326;50.794;6.060;2023-04-28T09:43:35;99107.06;;;15.07;100.00
26719;BME280;14326;50.794;6.060;2023-04-28T09:46:07;99101.75;;;15.02;100.00
26719;BME280;14326;50.794;6.060;2023-04-28T09:48:37;99097.97;;;15.14;100.00
26719;BME280;14326;50.794;6.060;2023-04-28T09:51:10;99100.59;;;15.19;100.00
26719;BME280;14326;50.794;6.060;2023-04-28T09:53:49;99103.00;;;15.34;100.00
26719;BME280;14326;50.794;6.060;2023-04-28T09:56:34;99097.22;;;15.58;100.00
26719;BME280;14326;50.794;6.060;2023-04-28T09:59:06;99095.75;;;15.86;100.00
26719;BME280;14326;50.794;6.060;2023-04-28T10:01:36;99085.00;;;16.28;100.00
26719;BME280;14326;50.794;6.060;2023-04-28T10:04:15;99081.53;;;16.63;100.00
26719;BME280;14326;50.794;6.060;2023-04-28T10:06:45;99081.34;;;17.07;100.00
26719;BME280;14326;50.794;6.060;2023-04-28T10:09:16;99084.31;;;17.31;100.00
26719;BME280;14326;50.794;6.060;2023-04-28T10:11:50;99081.88;;;17.54;100.00
26719;BME280;14326;50.794;6.060;2023-04-28T10:14:19;99081.03;;;17.84;100.00
26719;BME280;14326;50.794;6.060;2023-04-28T10:16:46;99080.63;;;17.98;100.00
26719;BME280;14326;50.794;6.060;2023-04-28T11:13:44;99055.72;;;20.50;84.25
26719;BME280;14326;50.794;6.060;2023-04-28T11:16:14;99054.38;;;20.38;81.09
26719;BME280;14326;50.794;6.060;2023-04-28T11:18:49;99047.25;;;20.37;82.81
26719;BME280;14326;50.794;6.060;2023-04-28T11:21:16;99047.06;;;20.42;83.08
26719;BME280;14326;50.794;6.060;2023-04-28T11:23:44;99038.53;;;20.29;82.00
26719;BME280;14326;50.794;6.060;2023-04-28T11:26:11;99042.44;;;20.21;81.90
26719;BME280;14326;50.794;6.060;2023-04-28T11:28:47;99042.53;;;20.19;81.67
26719;BME280;14326;50.794;6.060;2023-04-28T11:31:15;99040.03;;;20.38;85.92
26719;BME280;14326;50.794;6.060;2023-04-28T11:33:45;99029.41;;;20.77;80.78
26719;BME280;14326;50.794;6.060;2023-04-28T11:36:39;99035.44;;;20.83;81.44
26719;BME280;14326;50.794;6.060;2023-04-28T11:39:11;99036.50;;;20.79;80.81
26719;BME280;14326;50.794;6.060;2023-04-28T11:41:39;99026.13;;;20.69;79.52
26719;BME280;14326;50.794;6.060;2023-04-28T11:44:11;99030.97;;;20.82;78.61
26719;BME280;14326;50.794;6.060;2023-04-28T11:46:44;99032.38;;;20.91;77.44
26719;BME280;14326;50.794;6.060;2023-04-28T11:49:11;99035.81;;;20.96;76.81
26719;BME280;14326;50.794;6.060;2023-04-28T11:51:39;99049.06;;;21.24;75.93
26719;BME280;14326;50.794;6.060;2023-04-28T11:54:10;99042.09;;;21.39;75.05
26719;BME280;14326;50.794;6.060;2023-04-28T11:56:39;99040.06;;;21.23;74.06
26719;BME280;14326;50.794;6.060;2023-04-28T11:59:08;99037.91;;;21.10;74.00
26719;BME280;14326;50.794;6.060;2023-04-28T12:01:45;99035.81;;;21.18;72.83
26719;BME280;14326;50.794;6.060;2023-04-28T12:04:12;99045.31;;;21.27;74.58
26719;BME280;14326;50.794;6.060;2023-04-28T12:06:40;99039.38;;;21.39;73.25
26719;BME280;14326;50.794;6.060;2023-04-28T12:09:17;99028.69;;;21.56;69.65
26719;BME280;14326;50.794;6.060;2023-04-28T12:11:53;99024.25;;;21.55;71.35
26719;BME280;14326;50.794;6.060;2023-04-28T12:14:21;99033.31;;;21.54;70.61
26719;BME280;14326;50.794;6.060;2023-04-28T12:16:50;99025.44;;;21.68;69.90
26719;BME280;14326;50.794;6.060;2023-04-28T12:19:17;99028.06;;;21.90;70.16
26719;BME280;14326;50.794;6.060;2023-04-28T12:21:57;99019.22;;;22.05;69.33
26719;BME280;14326;50.794;6.060;2023-04-28T12:24:27;99024.53;;;22.08;68.41
26719;BME280;14326;50.794;6.060;2023-04-28T12:26:54;99013.81;;;22.05;67.54
26719;BME280;14326;50.794;6.060;2023-04-28T12:29:40;99012.06;;;22.04;68.58
26719;BME280;14326;50.794;6.060;2023-04-28T12:39:52;99023.03;;;22.38;64.92
26719;BME280;14326;50.794;6.060;2023-04-28T12:42:21;99018.72;;;22.16;64.08
26719;BME280;14326;50.794;6.060;2023-04-28T12:44:48;99007.09;;;22.14;66.16
26719;BME280;14326;50.794;6.060;2023-04-28T12:47:16;99012.66;;;22.29;66.90
26719;BME280;14326;50.794;6.060;2023-04-28T12:49:43;99005.63;;;22.44;65.78
26719;BME280;14326;50.794;6.060;2023-04-28T12:52:11;99028.19;;;22.26;66.04
26719;BME280;14326;50.794;6.060;2023-04-28T12:54:37;99021.88;;;22.07;65.74
26719;BME280;14326;50.794;6.060;2023-04-28T12:59:47;99024.97;;;21.58;68.58
26719;BME280;14326;50.794;6.060;2023-04-28T13:02:16;99022.31;;;21.77;69.23
26719;BME280;14326;50.794;6.060;2023-04-28T13:04:43;99032.06;;;22.01;69.00
26719;BME280;14326;50.794;6.060;2023-04-28T13:07:10;99025.59;;;22.04;68.11
26719;BME280;14326;50.794;6.060;2023-04-28T13:09:37;99026.56;;;22.22;67.93
26719;BME280;14326;50.794;6.060;2023-04-28T13:12:03;99026.50;;;22.23;66.03
26719;BME280;14326;50.794;6.060;2023-04-28T13:14:38;99024.78;;;22.21;65.31
26719;BME280;14326;50.794;6.060;2023-04-28T13:17:09;99023.56;;;22.28;64.44
26719;BME280;14326;50.794;6.060;2023-04-28T13:19:36;99027.69;;;22.36;64.99
26719;BME280;14326;50.794;6.060;2023-04-28T13:22:13;99030.22;;;22.39;63.87
26719;BME280;14326;50.794;6.060;2023-04-28T13:24:40;99035.34;;;22.45;62.66
26719;BME280;14326;50.794;6.060;2023-04-28T13:27:07;99019.84;;;22.30;64.92
26719;BME280;14326;50.794;6.060;2023-04-28T13:29:38;99021.06;;;22.42;65.41
26719;BME280;14326;50.794;6.060;2023-04-28T13:32:09;99018.31;;;22.43;62.84
26719;BME280;14326;50.794;6.060;2023-04-28T13:34:38;99016.19;;;22.31;62.24
26719;BME280;14326;50.794;6.060;2023-04-28T13:37:05;99022.88;;;22.04;61.02
26719;BME280;14326;50.794;6.060;2023-04-28T13:39:34;99030.72;;;21.71;63.79
26719;BME280;14326;50.794;6.060;2023-04-28T13:42:01;99041.03;;;21.43;65.40
26719;BME280;14326;50.794;6.060;2023-04-28T13:44:36;99029.94;;;21.49;66.17
26719;BME280;14326;50.794;6.060;2023-04-28T13:47:09;99039.94;;;21.67;68.43
26719;BME280;14326;50.794;6.060;2023-04-28T13:49:35;99047.50;;;21.79;68.06
26719;BME280;14326;50.794;6.060;2023-04-28T13:52:04;99049.72;;;21.70;67.51
26719;BME280;14326;50.794;6.060;2023-04-28T13:54:33;99039.66;;;21.73;67.74
26719;BME280;14326;50.794;6.060;2023-04-28T13:57:00;99045.59;;;21.81;67.45
26719;BME280;14326;50.794;6.060;2023-04-28T13:59:27;99038.84;;;21.71;65.06
26719;BME280;14326;50.794;6.060;2023-04-28T14:02:00;99042.44;;;21.72;64.78
26719;BME280;14326;50.794;6.060;2023-04-28T14:04:32;99053.88;;;21.58;63.55
26719;BME280;14326;50.794;6.060;2023-04-28T14:06:58;99068.28;;;21.38;62.88
26719;BME280;14326;50.794;6.060;2023-04-28T14:09:25;99056.22;;;21.03;63.62
26719;BME280;14326;50.794;6.060;2023-04-28T14:11:52;99061.47;;;21.08;64.01
26719;BME280;14326;50.794;6.060;2023-04-28T14:14:20;99074.47;;;20.98;64.92
26719;BME280;14326;50.794;6.060;2023-04-28T14:16:47;99059.31;;;20.94;66.00
26719;BME280;14326;50.794;6.060;2023-04-28T14:19:14;99060.06;;;20.98;67.34
26719;BME280;14326;50.794;6.060;2023-04-28T14:21:43;99070.66;;;20.82;68.29
26719;BME280;14326;50.794;6.060;2023-04-28T14:24:10;99060.66;;;20.84;67.90
26719;BME280;14326;50.794;6.060;2023-04-28T14:26:37;99078.81;;;20.59;67.26
26719;BME280;14326;50.794;6.060;2023-04-28T14:29:04;99079.97;;;20.52;67.07
26719;BME280;14326;50.794;6.060;2023-04-28T14:31:31;99075.91;;;20.63;67.94
26719;BME280;14326;50.794;6.060;2023-04-28T14:33:58;99075.72;;;20.68;68.90
26719;BME280;14326;50.794;6.060;2023-04-28T14:36:25;99091.94;;;20.68;68.37
26719;BME280;14326;50.794;6.060;2023-04-28T14:38:53;99092.56;;;20.53;69.04
26719;BME280;14326;50.794;6.060;2023-04-28T14:41:20;99093.28;;;20.34;68.73
26719;BME280;14326;50.794;6.060;2023-04-28T14:43:47;99097.19;;;20.26;69.31
26719;BME280;14326;50.794;6.060;2023-04-28T14:46:14;99087.03;;;20.32;68.08
26719;BME280;14326;50.794;6.060;2023-04-28T14:48:42;99092.44;;;20.32;67.62
26719;BME280;14326;50.794;6.060;2023-04-28T14:51:09;99089.59;;;20.37;67.02
26719;BME280;14326;50.794;6.060;2023-04-28T14:53:36;99087.34;;;20.48;67.41
26719;BME280;14326;50.794;6.060;2023-04-28T14:56:05;99099.50;;;20.36;68.10
26719;BME280;14326;50.794;6.060;2023-04-28T14:58:35;99087.19;;;20.04;69.63
26719;BME280;14326;50.794;6.060;2023-04-28T15:01:02;99102.72;;;19.98;71.00
26719;BME280;14326;50.794;6.060;2023-04-28T15:03:28;99103.31;;;19.83;72.87
26719;BME280;14326;50.794;6.060;2023-04-28T15:05:55;99112.78;;;19.70;74.00
26719;BME280;14326;50.794;6.060;2023-04-28T15:08:34;99109.81;;;19.52;75.28